Time;durP1;ratioP1;P1;durP2;ratioP2;P2;SDS_P1;SDS_P2;PMS_P1;PMS_P2;Temp;Humidity;BMP_temperature;BMP_pressure;BME280_temperature;BME280_humidity;BME280_pressure;Samples;Min_cycle;Max_cycle;Signal;HPM_P1;HPM_P2
2021/11/20 00:07:42;;;;;;;43.53;21.20;;;;;;;7.31;94.92;101861.63;20981852;28;20110;-69
2021/11/20 00:17:43;;;;;;;43.55;21.50;;;;;;;7.31;94.92;101859.88;20980976;28;20048;-68
2021/11/20 00:27:46;;;;;;;44.03;20.90;;;;;;;7.26;95.11;101848.50;20980874;28;20049;-69
2021/11/20 00:37:49;;;;;;;43.50;21.02;;;;;;;7.30;95.01;101845.09;20993729;28;20076;-69
2021/11/20 00:47:51;;;;;;;42.65;20.05;;;;;;;7.29;95.03;101843.34;20994998;28;20053;-69
2021/11/20 00:57:54;;;;;;;44.42;21.05;;;;;;;7.30;94.85;101833.81;20993800;28;20455;-70
2021/11/20 01:07:57;;;;;;;38.20;18.80;;;;;;;7.33;94.36;101834.75;20992590;28;20052;-69
2021/11/20 01:17:59;;;;;;;39.25;19.20;;;;;;;7.30;94.71;101824.25;20992389;28;20315;-70
2021/11/20 01:28:03;;;;;;;42.95;20.25;;;;;;;7.29;94.61;101813.81;20991490;28;20056;-69
2021/11/20 01:38:05;;;;;;;39.58;18.85;;;;;;;7.25;94.50;101805.06;20990470;28;20102;-69
2021/11/20 01:48:44;;;;;;;38.75;19.30;;;;;;;7.23;94.58;101803.25;20990315;28;20053;-69
2021/11/20 01:59:15;;;;;;;35.42;17.98;;;;;;;7.27;94.57;101789.44;20988568;28;20089;-69
2021/11/20 02:09:26;;;;;;;33.00;17.30;;;;;;;7.29;94.62;101783.44;20987936;28;20048;-69
2021/11/20 02:19:33;;;;;;;37.83;19.27;;;;;;;7.24;94.57;101769.44;20987213;28;20045;-69
2021/11/20 02:29:46;;;;;;;42.53;19.45;;;;;;;7.24;94.32;101756.41;20986163;28;20048;-69
2021/11/20 02:39:48;;;;;;;40.53;20.77;;;;;;;7.22;94.79;101742.47;20985790;28;20040;-69
2021/11/20 02:49:51;;;;;;;45.13;22.17;;;;;;;7.23;94.81;101738.13;20985427;28;20106;-69
2021/11/20 02:59:53;;;;;;;47.65;22.80;;;;;;;7.24;94.58;101725.16;20984677;28;20049;-69
2021/11/20 03:09:54;;;;;;;53.22;25.42;;;;;;;7.17;94.70;101715.44;20983943;28;20056;-69
2021/11/20 03:19:56;;;;;;;53.30;23.67;;;;;;;7.16;95.09;101711.09;20983543;28;20082;-69
2021/11/20 03:29:57;;;;;;;56.55;25.85;;;;;;;7.19;95.06;101701.63;20983702;28;20048;-69
2021/11/20 03:39:59;;;;;;;54.25;26.25;;;;;;;7.20;94.85;101707.72;20981820;28;20078;-68
2021/11/20 03:50:01;;;;;;;53.53;26.00;;;;;;;7.21;94.96;101704.25;20982789;28;20110;-69
2021/11/20 04:00:09;;;;;;;53.10;25.77;;;;;;;7.14;95.21;101697.19;20982398;28;20049;-69
2021/11/20 04:10:12;;;;;;;55.38;26.63;;;;;;;7.14;94.93;101682.44;20991423;28;20052;-69
2021/11/20 04:20:17;;;;;;;57.78;27.42;;;;;;;7.13;95.39;101666.75;20996809;28;20443;-69
2021/11/20 04:30:21;;;;;;;59.13;27.83;;;;;;;7.07;95.32;101654.50;20996493;28;20067;-69
2021/11/20 04:40:24;;;;;;;55.77;26.77;;;;;;;7.04;95.71;101658.75;20995725;28;20055;-68
2021/11/20 04:50:25;;;;;;;60.08;27.48;;;;;;;7.01;95.78;101653.50;20994147;28;20052;-69
2021/11/20 05:00:31;;;;;;;62.72;27.88;;;;;;;6.96;95.81;101640.41;20993411;28;20049;-69
2021/11/20 05:10:34;;;;;;;59.75;27.92;;;;;;;6.89;95.89;101621.16;20992718;28;20139;-68
2021/11/20 05:20:36;;;;;;;59.03;27.85;;;;;;;6.78;96.04;101620.09;20992324;28;20078;-69
2021/11/20 05:30:39;;;;;;;59.47;27.15;;;;;;;6.69;96.22;101607.78;20991139;28;20686;-69
2021/11/20 05:40:41;;;;;;;60.90;28.20;;;;;;;6.67;96.52;101606.00;20990904;28;20044;-69
2021/11/20 05:50:43;;;;;;;68.90;30.33;;;;;;;6.68;96.63;101593.00;20989731;28;20056;-69
2021/11/20 06:00:49;;;;;;;73.43;30.73;;;;;;;6.66;96.02;101599.06;20988856;28;20041;-68
2021/11/20 06:10:54;;;;;;;65.50;28.45;;;;;;;6.64;96.37;101603.34;20988382;28;20060;-69
2021/11/20 06:20:55;;;;;;;60.53;28.00;;;;;;;6.67;96.35;101611.22;20987045;28;20090;-70
2021/11/20 06:30:59;;;;;;;59.08;25.70;;;;;;;6.52;96.33;101610.91;20985161;28;20127;-70
2021/11/20 06:41:03;;;;;;;66.95;27.45;;;;;;;6.50;96.57;101612.59;20985906;28;20063;-70
2021/11/20 06:51:06;;;;;;;66.67;28.33;;;;;;;6.54;95.83;101614.41;20985581;28;20118;-69
2021/11/20 07:01:13;;;;;;;65.28;26.13;;;;;;;6.51;96.85;101614.34;20984317;28;20041;-69
2021/11/20 07:11:16;;;;;;;59.50;25.15;;;;;;;6.59;96.35;101613.66;20983902;28;20111;-68
2021/11/20 07:21:22;;;;;;;59.33;24.42;;;;;;;6.66;95.86;101615.53;20983802;28;20048;-67
2021/11/20 07:31:25;;;;;;;56.05;23.92;;;;;;;6.63;95.71;101607.66;20982489;28;20479;-68
2021/11/20 07:41:28;;;;;;;56.00;23.92;;;;;;;6.60;95.01;101598.91;20989061;28;20048;-67
2021/11/20 07:51:29;;;;;;;50.97;22.52;;;;;;;6.55;95.24;101592.75;20999630;28;20052;-67
2021/11/20 08:01:31;;;;;;;46.33;20.25;;;;;;;6.54;95.77;101589.28;20986796;28;20048;-68
2021/11/20 08:11:34;;;;;;;50.88;22.00;;;;;;;6.58;95.16;101580.69;20958668;28;20040;-67
2021/11/20 08:21:36;;;;;;;40.28;18.25;;;;;;;6.66;94.28;101560.03;20917876;28;20496;-67
2021/11/20 08:31:41;;;;;;;44.83;19.52;;;;;;;6.65;93.95;101555.63;20966791;28;20490;-67
2021/11/20 08:41:45;;;;;;;44.53;19.60;;;;;;;6.57;94.81;101544.22;20936754;28;20406;-67
2021/11/20 08:51:49;;;;;;;42.83;19.15;;;;;;;6.48;94.80;101547.53;20933586;28;20049;-67
2021/11/20 09:02:00;;;;;;;52.40;22.03;;;;;;;6.61;95.23;101541.72;20959784;28;20144;-72
2021/11/20 09:12:17;;;;;;;53.15;21.63;;;;;;;7.06;93.49;101526.88;20966368;28;20143;-70
2021/11/20 09:22:20;;;;;;;41.88;18.70;;;;;;;7.32;91.84;101528.16;20901523;28;20065;-70
2021/11/20 09:32:21;;;;;;;42.25;19.05;;;;;;;7.16;91.01;101529.66;20900927;28;20559;-70
2021/11/20 09:42:27;;;;;;;41.08;19.02;;;;;;;7.29;90.81;101509.03;20899516;28;20091;-71
2021/11/20 09:52:29;;;;;;;40.80;18.98;;;;;;;7.35;91.54;101517.78;20899942;28;20060;-70
2021/11/20 10:02:40;;;;;;;45.63;21.15;;;;;;;7.34;89.82;101512.56;20897569;28;20501;-70
2021/11/20 10:12:46;;;;;;;40.53;19.77;;;;;;;7.45;90.56;101500.56;20922972;28;20057;-70
2021/11/20 10:23:05;;;;;;;39.20;19.33;;;;;;;7.57;88.22;101490.34;20980431;28;20082;-70
2021/11/20 10:33:32;;;;;;;40.58;20.30;;;;;;;7.49;90.07;101470.22;20978719;28;20060;-71
2021/11/20 10:43:41;;;;;;;40.72;18.77;;;;;;;7.82;88.56;101454.16;20951154;28;20048;-71
2021/11/20 10:53:54;;;;;;;34.78;17.13;;;;;;;8.01;87.50;101439.59;20978360;28;20105;-73
2021/11/20 11:04:07;;;;;;;33.45;16.45;;;;;;;7.79;86.57;101421.09;20977204;28;20045;-73
2021/11/20 11:14:11;;;;;;;30.52;16.17;;;;;;;8.14;87.23;101399.72;20938280;28;20057;-71
2021/11/20 11:24:43;;;;;;;26.17;14.37;;;;;;;8.76;83.53;101386.41;20893041;28;20052;-70
2021/11/20 11:34:54;;;;;;;26.95;13.90;;;;;;;8.91;82.42;101369.97;20891497;28;20106;-71
2021/11/20 11:45:11;;;;;;;27.13;14.80;;;;;;;8.76;83.60;101349.84;20891146;28;20103;-70
2021/11/20 11:55:39;;;;;;;20.27;10.52;;;;;;;8.97;79.89;101312.56;20892378;28;20091;-70
2021/11/20 12:05:58;;;;;;;19.67;11.63;;;;;;;8.84;82.55;101301.16;20891149;28;20076;-70
2021/11/20 12:16:07;;;;;;;21.35;12.07;;;;;;;9.11;81.23;101283.91;20944492;28;20459;-72
2021/11/20 12:26:17;;;;;;;18.95;10.50;;;;;;;9.20;80.79;101263.03;20976439;28;20056;-72
2021/11/20 12:36:45;;;;;;;19.02;10.23;;;;;;;9.40;80.02;101239.56;20988002;28;20056;-71
2021/11/20 12:46:53;;;;;;;15.30;8.80;;;;;;;9.53;79.97;101207.34;20986945;28;20048;-71
2021/11/20 12:57:19;;;;;;;16.45;8.85;;;;;;;9.44;80.77;101187.31;20987687;28;20050;-71
2021/11/20 13:07:28;;;;;;;15.88;9.57;;;;;;;9.37;79.29;101176.84;20986554;28;20045;-71
2021/11/20 13:17:45;;;;;;;12.63;8.02;;;;;;;9.37;79.24;101162.03;20975469;28;20045;-73
2021/11/20 13:27:55;;;;;;;13.25;7.47;;;;;;;9.31;80.39;101162.03;20984732;28;20139;-72
2021/11/20 13:38:03;;;;;;;15.27;8.25;;;;;;;9.25;79.66;101141.13;20984182;28;20467;-72
2021/11/20 13:48:06;;;;;;;11.27;6.80;;;;;;;9.27;81.06;101128.91;20977235;28;20060;-66
2021/11/20 13:58:17;;;;;;;10.68;6.28;;;;;;;9.22;78.93;101117.59;20982613;28;20049;-67
2021/11/20 14:08:26;;;;;;;10.27;6.13;;;;;;;9.30;80.11;101108.03;20979979;28;20524;-69
2021/11/20 14:18:28;;;;;;;13.53;6.70;;;;;;;9.28;79.18;101098.41;20979682;28;20517;-69
2021/11/20 14:28:44;;;;;;;9.90;5.82;;;;;;;9.17;78.91;101090.56;20975008;28;20057;-70
2021/11/20 14:38:50;;;;;;;13.63;5.03;;;;;;;9.08;78.73;101072.28;20973835;28;20493;-70
2021/11/20 14:49:00;;;;;;;8.52;5.15;;;;;;;9.05;79.46;101062.69;20973375;28;20048;-70
2021/11/20 14:59:01;;;;;;;8.55;5.40;;;;;;;8.87;80.21;101053.09;20975547;28;20413;-70
2021/11/20 15:09:05;;;;;;;9.40;5.18;;;;;;;8.82;80.47;101036.56;20974454;28;20102;-70
2021/11/20 15:19:08;;;;;;;10.00;4.70;;;;;;;8.68;80.24;101035.66;20973937;28;20048;-69
2021/11/20 15:29:09;;;;;;;9.57;5.13;;;;;;;8.63;81.63;101016.50;20972668;28;20500;-70
2021/11/20 15:39:11;;;;;;;12.73;6.60;;;;;;;8.52;81.31;101010.38;20971287;28;20074;-70
2021/11/20 15:49:14;;;;;;;9.52;5.72;;;;;;;8.47;80.73;101002.53;20974772;28;20459;-70
2021/11/20 15:59:15;;;;;;;10.60;6.10;;;;;;;8.37;81.79;100996.41;20973759;28;20570;-71
2021/11/20 16:09:19;;;;;;;13.13;7.00;;;;;;;8.32;82.48;100981.59;20990175;28;20121;-70
2021/11/20 16:19:21;;;;;;;22.45;14.57;;;;;;;8.22;82.83;100959.81;20908565;28;20103;-70
2021/11/20 16:29:23;;;;;;;14.02;8.20;;;;;;;8.16;82.82;100965.03;20915018;28;20448;-70
2021/11/20 16:39:24;;;;;;;11.23;6.50;;;;;;;8.12;83.50;100963.25;20984586;28;20113;-70
2021/11/20 16:49:25;;;;;;;14.27;8.10;;;;;;;8.07;84.84;100954.56;20941069;28;20053;-70
2021/11/20 16:59:27;;;;;;;10.93;6.40;;;;;;;8.01;84.08;100936.28;20904012;28;20103;-70
2021/11/20 17:09:29;;;;;;;13.35;7.15;;;;;;;7.95;84.47;100924.97;20901617;28;20413;-71
2021/11/20 17:19:31;;;;;;;12.40;7.05;;;;;;;7.81;84.20;100911.03;20982573;28;20101;-70
2021/11/20 17:29:35;;;;;;;13.43;8.20;;;;;;;7.61;85.49;100900.50;20984670;28;20052;-70
2021/11/20 17:39:37;;;;;;;12.80;8.83;;;;;;;7.61;85.70;100892.66;20983724;28;20090;-71
2021/11/20 17:49:38;;;;;;;15.57;10.13;;;;;;;7.54;85.73;100895.25;20981377;28;20122;-71
2021/11/20 17:59:40;;;;;;;15.40;9.98;;;;;;;7.38;86.29;100884.78;20982734;28;20102;-70
2021/11/20 18:09:41;;;;;;;17.52;10.23;;;;;;;7.40;86.57;100864.78;20981170;28;20121;-70
2021/11/20 18:19:43;;;;;;;20.13;11.77;;;;;;;7.31;86.56;100848.25;20898041;28;20189;-70
2021/11/20 18:29:44;;;;;;;19.38;11.65;;;;;;;7.17;87.41;100848.19;20896919;28;20111;-71
2021/11/20 18:39:46;;;;;;;20.60;12.45;;;;;;;7.15;87.89;100840.38;20925618;28;20099;-71
2021/11/20 18:49:47;;;;;;;21.05;11.82;;;;;;;7.07;87.38;100833.38;20977424;28;20056;-71
2021/11/20 18:59:49;;;;;;;21.90;11.30;;;;;;;6.96;87.88;100832.44;20977069;28;20109;-71
2021/11/20 19:09:50;;;;;;;16.70;10.07;;;;;;;6.91;87.13;100830.69;20976596;28;20394;-71
2021/11/20 19:19:52;;;;;;;19.73;10.65;;;;;;;6.84;86.85;100831.50;20976385;28;20057;-66
2021/11/20 19:29:53;;;;;;;21.45;12.85;;;;;;;6.67;88.42;100815.78;20977256;28;20102;-66
2021/11/20 19:39:55;;;;;;;27.13;15.35;;;;;;;6.55;89.32;100799.22;20993383;28;20048;-66
2021/11/20 19:49:56;;;;;;;32.40;17.40;;;;;;;6.47;88.66;100775.75;21000676;28;20053;-67
2021/11/20 19:59:58;;;;;;;24.23;13.98;;;;;;;6.35;89.56;100771.31;21001233;28;20044;-67
2021/11/20 20:09:59;;;;;;;29.63;15.75;;;;;;;6.09;89.50;100772.88;21069457;28;20048;-66
2021/11/20 20:20:04;;;;;;;29.65;16.75;;;;;;;6.14;89.09;100776.38;21000851;28;20078;-66
2021/11/20 20:30:08;;;;;;;;;;;;;;;6.11;88.84;100758.13;21001873;28;20106;-67
2021/11/20 20:40:21;;;;;;;31.25;18.55;;;;;;;6.19;88.33;100742.63;21001824;28;20355;-66
2021/11/20 20:50:28;;;;;;;39.42;21.23;;;;;;;6.24;88.72;100726.19;20992235;28;20062;-66
2021/11/20 21:00:30;;;;;;;44.97;23.70;;;;;;;6.23;88.43;100708.84;20986655;28;20045;-66
2021/11/20 21:10:33;;;;;;;52.05;27.27;;;;;;;6.22;88.47;100685.41;20980447;28;20056;-66
2021/11/20 21:30:54;;;;;;;53.33;28.17;;;;;;;6.27;88.99;100671.56;20902299;28;20041;-67
2021/11/20 21:40:57;;;;;;;46.20;24.65;;;;;;;6.19;89.58;100655.09;20905833;28;20453;-66
2021/11/20 21:50:59;;;;;;;60.80;30.77;;;;;;;6.09;89.91;100635.09;20901377;28;20052;-67
2021/11/20 22:01:00;;;;;;;45.13;23.27;;;;;;;6.08;90.24;100625.53;20898854;28;20083;-66
2021/11/20 22:11:04;;;;;;;49.95;23.50;;;;;;;6.13;90.77;100619.53;20909430;28;20056;-74
2021/11/20 22:21:06;;;;;;;51.60;23.33;;;;;;;6.10;90.91;100603.03;20981059;28;20056;-71
2021/11/20 22:31:07;;;;;;;46.22;21.73;;;;;;;5.84;90.91;100590.69;20979316;28;20048;-71
2021/11/20 22:41:09;;;;;;;48.40;21.95;;;;;;;5.82;90.70;100594.16;20979199;28;20044;-72
2021/11/20 22:51:26;;;;;;;49.60;20.77;;;;;;;5.80;90.56;100593.28;20977485;28;20181;-74
2021/11/20 23:01:28;;;;;;;47.80;21.15;;;;;;;5.38;91.79;100576.53;20977572;28;20044;-71
2021/11/20 23:11:30;;;;;;;47.90;20.85;;;;;;;5.27;91.58;100571.25;20983748;28;20084;-74
2021/11/20 23:21:32;;;;;;;43.28;19.63;;;;;;;5.02;92.67;100548.50;20984343;28;20398;-71
2021/11/20 23:31:34;;;;;;;42.50;19.73;;;;;;;5.20;91.46;100543.47;20982563;28;20497;-72
2021/11/20 23:41:36;;;;;;;45.63;19.83;;;;;;;5.21;90.27;100536.56;20982546;28;20102;-71
2021/11/20 23:51:38;;;;;;;45.00;20.02;;;;;;;4.70;92.19;100536.09;20982964;28;20048;-72
